Warner Robins, GA

11:29 PM EST on December 21, 2014 (GMT -0500)
KGACENTE2 | Change Station
CLOSE
Current Station
Personal Weather Station
Location: Centerville, GA
Elevation: 450 ft
Nearby Weather Stations

Elev 450 ft 32.64 °N, 83.69 °W | Updated 1 minute ago

Fog
Fog
47.3 °F
Feels Like 44 °F
N
6.0
Wind Variable Wind from East
Gusts 6.0 mph

Today
High -- | Low -- °F
--% Chance of Precip.
Yesterday
High -- | Low -- °F
Precip. -- in
7:32 AM 5:32 PM
New Moon, 0% visible
Pressure 30.10 in
Visibility 2.5 miles
Clouds Overcast 400 ft
Windchill 44 °F
Dew Point 47 °F
Humidity 97%
Rainfall 0.02 in
Snow Depth Not available.
UV 0 out of 12
Pollen 1.40 out of 12
Air Quality Not available.
Flu Activity Not available.
SPECI KWRB 220420Z AUTO VRB04KT 2 1/2SM R33/3500FT -DZ BR OVC004 09/08 A3010 RMK AO2 VIS 2 1/2V3 DZE0409

More Conditions Fewer Conditions

Pressure 30.10 in
Visibility 2.5 miles
Clouds Overcast 400 ft
Windchill 44 °F
Dew Point 47 °F
Humidity 97%
Rainfall 0.02 in
Snow Depth Not available.
UV 0 out of 12
Pollen 1.40 out of 12
Air Quality Not available.
Flu Activity Not available.
SPECI KWRB 220420Z AUTO VRB04KT 2 1/2SM R33/3500FT -DZ BR OVC004 09/08 A3010 RMK AO2 VIS 2 1/2V3 DZE0409

More Conditions Fewer Conditions

10-Day Weather Forecast

Almanac

Astronomy

Dec. 21, 2014 Rise Set
Actual Time
Civil Twilight
Nautical Twilight
Astronomical Twilight
Moon
Length of Visible Light
Length of Day
Tomorrow will be .
, % of the Moon is Illuminated

Today's Extremes

State Highs State Lows

Community

WunderPhotos

Upload Photos

1,779,537 photos uploaded!

WunderBlogs® & News

Nearby

Air Quality

  Air Quality AQ Index Pollutant
Not available.

Snow Depth

Station Depth Elevation

Earthquake Activity

City Distance Mag. Time & Date
Minimum magnitude displayed is 2.5.

Coastal Water Temperatures

Place Temperature

Nearby Weather Stations